sensor_id;sensor_type;location;lat;lon;timestamp;pressure;altitude;pressure_sealevel;temperature;humidity
7407;BME280;3745;56.964;24.128;2023-04-06T00:01:37;102339.91;;;2.70;100.00
7407;BME280;3745;56.964;24.128;2023-04-06T00:04:03;102237.44;;;2.11;100.00
7407;BME280;3745;56.964;24.128;2023-04-06T00:06:28;102327.97;;;2.66;100.00
7407;BME280;3745;56.964;24.128;2023-04-06T00:08:56;102359.00;;;2.82;100.00
7407;BME280;3745;56.964;24.128;2023-04-06T00:11:22;102355.19;;;2.87;100.00
7407;BME280;3745;56.964;24.128;2023-04-06T00:13:48;102320.78;;;2.59;100.00
7407;BME280;3745;56.964;24.128;2023-04-06T00:16:13;102354.31;;;2.86;100.00
7407;BME280;3745;56.964;24.128;2023-04-06T00:18:39;102359.00;;;2.82;100.00
7407;BME280;3745;56.964;24.128;2023-04-06T00:21:05;102354.44;;;2.88;100.00
7407;BME280;3745;56.964;24.128;2023-04-06T00:23:31;102354.44;;;2.88;100.00
7407;BME280;3745;56.964;24.128;2023-04-06T00:25:57;102302.75;;;2.63;100.00
7407;BME280;3745;56.964;24.128;2023-04-06T00:28:22;102347.91;;;2.90;100.00
7407;BME280;3745;56.964;24.128;2023-04-06T00:30:54;102362.03;;;3.01;100.00
7407;BME280;3745;56.964;24.128;2023-04-06T00:33:20;102341.41;;;2.92;100.00
7407;BME280;3745;56.964;24.128;2023-04-06T00:35:46;102236.78;;;2.37;100.00
7407;BME280;3745;56.964;24.128;2023-04-06T00:38:12;102266.22;;;2.65;100.00
7407;BME280;3745;56.964;24.128;2023-04-06T00:40:38;102357.00;;;3.12;100.00
7407;BME280;3745;56.964;24.128;2023-04-06T00:43:07;102358.06;;;3.16;100.00
7407;BME280;3745;56.964;24.128;2023-04-06T00:45:34;102353.69;;;3.25;100.00
7407;BME280;3745;56.964;24.128;2023-04-06T00:48:00;102313.53;;;2.99;100.00
7407;BME280;3745;56.964;24.128;2023-04-06T00:50:27;102352.75;;;3.36;100.00
7407;BME280;3745;56.964;24.128;2023-04-06T00:52:54;102339.97;;;3.20;100.00
7407;BME280;3745;56.964;24.128;2023-04-06T00:55:20;102356.94;;;3.24;100.00
7407;BME280;3745;56.964;24.128;2023-04-06T00:57:46;102327.44;;;3.07;100.00
7407;BME280;3745;56.964;24.128;2023-04-06T01:00:13;102347.16;;;3.27;100.00
7407;BME280;3745;56.964;24.128;2023-04-06T01:02:39;102305.88;;;3.09;100.00
7407;BME280;3745;56.964;24.128;2023-04-06T01:05:05;102284.72;;;3.04;100.00
7407;BME280;3745;56.964;24.128;2023-04-06T01:07:31;102330.22;;;3.23;100.00
7407;BME280;3745;56.964;24.128;2023-04-06T01:09:57;102329.63;;;3.27;100.00
7407;BME280;3745;56.964;24.128;2023-04-06T01:12:22;102313.47;;;3.22;100.00
7407;BME280;3745;56.964;24.128;2023-04-06T01:14:48;102300.69;;;3.06;100.00
7407;BME280;3745;56.964;24.128;2023-04-06T01:17:14;102340.97;;;3.22;100.00
7407;BME280;3745;56.964;24.128;2023-04-06T01:19:39;102338.88;;;3.28;100.00
7407;BME280;3745;56.964;24.128;2023-04-06T01:22:16;102334.97;;;3.32;100.00
7407;BME280;3745;56.964;24.128;2023-04-06T01:24:42;102275.47;;;3.03;100.00
7407;BME280;3745;56.964;24.128;2023-04-06T01:27:08;102306.72;;;3.21;100.00
7407;BME280;3745;56.964;24.128;2023-04-06T01:29:33;102328.22;;;3.31;100.00
7407;BME280;3745;56.964;24.128;2023-04-06T01:31:59;102321.56;;;3.31;100.00
7407;BME280;3745;56.964;24.128;2023-04-06T01:34:24;102321.22;;;3.38;100.00
7407;BME280;3745;56.964;24.128;2023-04-06T01:36:50;102323.41;;;3.34;100.00
7407;BME280;3745;56.964;24.128;2023-04-06T01:39:16;102237.28;;;2.81;100.00
7407;BME280;3745;56.964;24.128;2023-04-06T01:41:41;102315.63;;;3.29;100.00
7407;BME280;3745;56.964;24.128;2023-04-06T01:44:07;102267.41;;;3.07;100.00
7407;BME280;3745;56.964;24.128;2023-04-06T01:46:32;102318.16;;;3.42;100.00
7407;BME280;3745;56.964;24.128;2023-04-06T01:48:58;102216.72;;;2.85;100.00
7407;BME280;3745;56.964;24.128;2023-04-06T01:51:24;102262.75;;;3.00;100.00
7407;BME280;3745;56.964;24.128;2023-04-06T01:53:51;102314.06;;;3.31;100.00
7407;BME280;3745;56.964;24.128;2023-04-06T01:56:16;102286.28;;;3.15;100.00
7407;BME280;3745;56.964;24.128;2023-04-06T01:58:42;102310.81;;;3.32;100.00
7407;BME280;3745;56.964;24.128;2023-04-06T02:01:08;102313.31;;;3.32;100.00
7407;BME280;3745;56.964;24.128;2023-04-06T02:03:33;102281.28;;;3.15;100.00
7407;BME280;3745;56.964;24.128;2023-04-06T02:05:59;102310.56;;;3.41;100.00
7407;BME280;3745;56.964;24.128;2023-04-06T02:08:25;102316.22;;;3.38;100.00
7407;BME280;3745;56.964;24.128;2023-04-06T02:10:50;102271.28;;;3.15;100.00
7407;BME280;3745;56.964;24.128;2023-04-06T02:13:16;102291.69;;;3.21;100.00
7407;BME280;3745;56.964;24.128;2023-04-06T02:15:41;102307.13;;;3.27;100.00
7407;BME280;3745;56.964;24.128;2023-04-06T02:18:07;102248.28;;;2.83;100.00
7407;BME280;3745;56.964;24.128;2023-04-06T02:20:33;102232.00;;;2.76;100.00
7407;BME280;3745;56.964;24.128;2023-04-06T02:22:59;102311.72;;;3.21;100.00
7407;BME280;3745;56.964;24.128;2023-04-06T02:25:25;102226.13;;;2.76;100.00
7407;BME280;3745;56.964;24.128;2023-04-06T02:27:51;102303.44;;;3.22;100.00
7407;BME280;3745;56.964;24.128;2023-04-06T02:30:17;102251.38;;;2.92;100.00
7407;BME280;3745;56.964;24.128;2023-04-06T02:32:43;102301.03;;;3.23;100.00
7407;BME280;3745;56.964;24.128;2023-04-06T02:35:08;102299.13;;;3.19;100.00
7407;BME280;3745;56.964;24.128;2023-04-06T02:37:34;102304.06;;;3.31;100.00
7407;BME280;3745;56.964;24.128;2023-04-06T02:39:59;102228.81;;;2.79;100.00
7407;BME280;3745;56.964;24.128;2023-04-06T02:42:25;102293.44;;;3.22;100.00
7407;BME280;3745;56.964;24.128;2023-04-06T02:44:51;102278.03;;;3.16;100.00
7407;BME280;3745;56.964;24.128;2023-04-06T02:47:16;102262.81;;;3.13;100.00
7407;BME280;3745;56.964;24.128;2023-04-06T02:49:42;102292.78;;;3.24;100.00
7407;BME280;3745;56.964;24.128;2023-04-06T02:52:07;102033.69;;;1.77;100.00
7407;BME280;3745;56.964;24.128;2023-04-06T02:54:33;102286.50;;;3.18;100.00
7407;BME280;3745;56.964;24.128;2023-04-06T02:56:58;102279.72;;;3.04;100.00
7407;BME280;3745;56.964;24.128;2023-04-06T02:59:24;102235.78;;;2.83;100.00
7407;BME280;3745;56.964;24.128;2023-04-06T03:01:50;102250.06;;;2.97;100.00
7407;BME280;3745;56.964;24.128;2023-04-06T03:04:16;102280.31;;;3.13;100.00
7407;BME280;3745;56.964;24.128;2023-04-06T03:06:42;102231.41;;;2.80;100.00
7407;BME280;3745;56.964;24.128;2023-04-06T03:09:07;102281.13;;;3.00;100.00
7407;BME280;3745;56.964;24.128;2023-04-06T03:11:33;102274.34;;;3.11;100.00
7407;BME280;3745;56.964;24.128;2023-04-06T03:13:59;102238.28;;;2.83;100.00
7407;BME280;3745;56.964;24.128;2023-04-06T03:16:24;102259.13;;;3.08;100.00
7407;BME280;3745;56.964;24.128;2023-04-06T03:18:50;102260.59;;;3.17;100.00
7407;BME280;3745;56.964;24.128;2023-04-06T03:21:15;102274.75;;;3.17;100.00
7407;BME280;3745;56.964;24.128;2023-04-06T03:23:42;102271.50;;;3.18;100.00
7407;BME280;3745;56.964;24.128;2023-04-06T03:26:08;102243.28;;;3.07;100.00
7407;BME280;3745;56.964;24.128;2023-04-06T03:28:33;102281.22;;;3.26;100.00
7407;BME280;3745;56.964;24.128;2023-04-06T03:30:59;102225.25;;;3.00;100.00
7407;BME280;3745;56.964;24.128;2023-04-06T03:33:25;102280.38;;;3.26;100.00
7407;BME280;3745;56.964;24.128;2023-04-06T03:35:54;102283.25;;;3.19;100.00
7407;BME280;3745;56.964;24.128;2023-04-06T03:38:20;102280.81;;;3.20;100.00
7407;BME280;3745;56.964;24.128;2023-04-06T03:40:45;102284.94;;;3.20;100.00
7407;BME280;3745;56.964;24.128;2023-04-06T03:43:11;102280.78;;;3.32;100.00
7407;BME280;3745;56.964;24.128;2023-04-06T03:45:37;102285.59;;;3.29;100.00
7407;BME280;3745;56.964;24.128;2023-04-06T03:48:03;102283.25;;;3.19;100.00
7407;BME280;3745;56.964;24.128;2023-04-06T03:50:28;102276.50;;;3.18;100.00
7407;BME280;3745;56.964;24.128;2023-04-06T03:52:54;102281.03;;;3.23;100.00
7407;BME280;3745;56.964;24.128;2023-04-06T03:55:20;102259.13;;;3.08;100.00
7407;BME280;3745;56.964;24.128;2023-04-06T03:57:46;102229.97;;;2.95;100.00
7407;BME280;3745;56.964;24.128;2023-04-06T04:00:12;102229.84;;;2.94;100.00
7407;BME280;3745;56.964;24.128;2023-04-06T04:02:38;102264.34;;;3.11;100.00
7407;BME280;3745;56.964;24.128;2023-04-06T04:05:04;102287.09;;;3.27;100.00
7407;BME280;3745;56.964;24.128;2023-04-06T04:07:30;102205.56;;;2.80;100.00
7407;BME280;3745;56.964;24.128;2023-04-06T04:09:55;102280.19;;;3.23;100.00
7407;BME280;3745;56.964;24.128;2023-04-06T04:12:21;102291.22;;;3.26;100.00
7407;BME280;3745;56.964;24.128;2023-04-06T04:14:47;102275.59;;;3.29;100.00
7407;BME280;3745;56.964;24.128;2023-04-06T04:17:12;102234.31;;;3.11;100.00
7407;BME280;3745;56.964;24.128;2023-04-06T04:19:38;102284.84;;;3.43;100.00
7407;BME280;3745;56.964;24.128;2023-04-06T04:22:03;102284.09;;;3.44;100.00
7407;BME280;3745;56.964;24.128;2023-04-06T04:24:32;102212.00;;;3.01;100.00
7407;BME280;3745;56.964;24.128;2023-04-06T04:26:59;102281.19;;;3.38;100.00
7407;BME280;3745;56.964;24.128;2023-04-06T04:29:26;102202.50;;;2.84;100.00
7407;BME280;3745;56.964;24.128;2023-04-06T04:31:52;102286.00;;;3.35;100.00
7407;BME280;3745;56.964;24.128;2023-04-06T04:34:18;102284.44;;;3.37;100.00
7407;BME280;3745;56.964;24.128;2023-04-06T04:36:46;102268.44;;;3.22;100.00
7407;BME280;3745;56.964;24.128;2023-04-06T04:39:11;102288.59;;;3.37;100.00
7407;BME280;3745;56.964;24.128;2023-04-06T04:41:37;102240.06;;;2.97;100.00
7407;BME280;3745;56.964;24.128;2023-04-06T04:44:03;102239.66;;;2.91;100.00
7407;BME280;3745;56.964;24.128;2023-04-06T04:46:28;102263.56;;;3.12;100.00
7407;BME280;3745;56.964;24.128;2023-04-06T04:48:54;102250.66;;;3.06;100.00
7407;BME280;3745;56.964;24.128;2023-04-06T04:51:20;102298.50;;;3.35;100.00
7407;BME280;3745;56.964;24.128;2023-04-06T04:53:45;102271.34;;;3.28;100.00
7407;BME280;3745;56.964;24.128;2023-04-06T04:56:11;102285.00;;;3.33;100.00
7407;BME280;3745;56.964;24.128;2023-04-06T04:58:36;102188.63;;;2.76;100.00
7407;BME280;3745;56.964;24.128;2023-04-06T05:01:02;102283.28;;;3.32;100.00
7407;BME280;3745;56.964;24.128;2023-04-06T05:03:28;102297.16;;;3.40;100.00
7407;BME280;3745;56.964;24.128;2023-04-06T05:05:53;102296.41;;;3.41;100.00
7407;BME280;3745;56.964;24.128;2023-04-06T05:08:20;102281.00;;;3.35;100.00
7407;BME280;3745;56.964;24.128;2023-04-06T05:10:45;102284.66;;;3.40;100.00
7407;BME280;3745;56.964;24.128;2023-04-06T05:13:12;102300.06;;;3.46;100.00
7407;BME280;3745;56.964;24.128;2023-04-06T05:15:37;102299.31;;;3.47;100.00
7407;BME280;3745;56.964;24.128;2023-04-06T05:18:07;102291.22;;;3.51;100.00
7407;BME280;3745;56.964;24.128;2023-04-06T05:20:34;102299.31;;;3.60;100.00
7407;BME280;3745;56.964;24.128;2023-04-06T05:23:00;102299.31;;;3.60;100.00
7407;BME280;3745;56.964;24.128;2023-04-06T05:25:44;102297.22;;;3.66;100.00
7407;BME280;3745;56.964;24.128;2023-04-06T05:28:10;102302.81;;;3.62;100.00
7407;BME280;3745;56.964;24.128;2023-04-06T05:30:49;102300.88;;;3.58;100.00
7407;BME280;3745;56.964;24.128;2023-04-06T05:33:15;102255.00;;;3.33;100.00
7407;BME280;3745;56.964;24.128;2023-04-06T05:35:55;102302.63;;;3.59;100.00
7407;BME280;3745;56.964;24.128;2023-04-06T05:38:23;102296.75;;;3.59;100.00
7407;BME280;3745;56.964;24.128;2023-04-06T05:40:48;102303.00;;;3.65;100.00
7407;BME280;3745;56.964;24.128;2023-04-06T05:43:14;102293.00;;;3.65;100.00
7407;BME280;3745;56.964;24.128;2023-04-06T05:45:45;102304.94;;;3.69;100.00
7407;BME280;3745;56.964;24.128;2023-04-06T05:48:11;102283.00;;;3.65;100.00
7407;BME280;3745;56.964;24.128;2023-04-06T05:50:36;102253.69;;;3.51;100.00
7407;BME280;3745;56.964;24.128;2023-04-06T05:53:02;102301.66;;;3.70;100.00
7407;BME280;3745;56.964;24.128;2023-04-06T05:55:28;102290.38;;;3.64;100.00
7407;BME280;3745;56.964;24.128;2023-04-06T05:57:53;102277.19;;;3.53;100.00
7407;BME280;3745;56.964;24.128;2023-04-06T06:00:19;102297.53;;;3.71;100.00
7407;BME280;3745;56.964;24.128;2023-04-06T06:02:44;102297.66;;;3.86;100.00
7407;BME280;3745;56.964;24.128;2023-04-06T06:05:10;102305.91;;;3.84;100.00
7407;BME280;3745;56.964;24.128;2023-04-06T06:07:36;102278.78;;;3.77;100.00
7407;BME280;3745;56.964;24.128;2023-04-06T06:10:02;102305.56;;;4.05;100.00
7407;BME280;3745;56.964;24.128;2023-04-06T06:12:28;102234.44;;;3.63;100.00
7407;BME280;3745;56.964;24.128;2023-04-06T06:14:54;102303.63;;;4.01;100.00
7407;BME280;3745;56.964;24.128;2023-04-06T06:17:19;102289.38;;;3.87;100.00
7407;BME280;3745;56.964;24.128;2023-04-06T06:19:45;102303.91;;;3.92;100.00
7407;BME280;3745;56.964;24.128;2023-04-06T06:22:10;102299.00;;;4.07;100.00
7407;BME280;3745;56.964;24.128;2023-04-06T06:24:40;102243.13;;;3.68;100.00
7407;BME280;3745;56.964;24.128;2023-04-06T06:27:05;102223.97;;;3.69;100.00
7407;BME280;3745;56.964;24.128;2023-04-06T06:29:33;102273.47;;;4.12;100.00
7407;BME280;3745;56.964;24.128;2023-04-06T06:31:58;102299.03;;;4.20;100.00
7407;BME280;3745;56.964;24.128;2023-04-06T06:34:24;102295.53;;;4.31;100.00
7407;BME280;3745;56.964;24.128;2023-04-06T06:36:50;102269.34;;;4.39;100.00
7407;BME280;3745;56.964;24.128;2023-04-06T06:39:16;102216.84;;;4.14;100.00
7407;BME280;3745;56.964;24.128;2023-04-06T06:41:42;102284.75;;;4.45;100.00
7407;BME280;3745;56.964;24.128;2023-04-06T06:44:07;102241.97;;;4.29;100.00
7407;BME280;3745;56.964;24.128;2023-04-06T06:46:33;102207.69;;;4.15;100.00
7407;BME280;3745;56.964;24.128;2023-04-06T06:48:59;102276.63;;;4.49;100.00
7407;BME280;3745;56.964;24.128;2023-04-06T06:51:25;102273.72;;;4.56;100.00
7407;BME280;3745;56.964;24.128;2023-04-06T06:53:50;102268.72;;;4.56;100.00
7407;BME280;3745;56.964;24.128;2023-04-06T06:56:16;102248.28;;;4.50;100.00
7407;BME280;3745;56.964;24.128;2023-04-06T06:58:42;102233.06;;;4.47;100.00
7407;BME280;3745;56.964;24.128;2023-04-06T07:01:07;102222.13;;;4.32;100.00
7407;BME280;3745;56.964;24.128;2023-04-06T07:03:33;102253.69;;;4.56;100.00
7407;BME280;3745;56.964;24.128;2023-04-06T07:05:59;102264.06;;;4.62;100.00
7407;BME280;3745;56.964;24.128;2023-04-06T07:08:24;102252.88;;;4.70;100.00
7407;BME280;3745;56.964;24.128;2023-04-06T07:10:51;102219.75;;;4.61;100.00
7407;BME280;3745;56.964;24.128;2023-04-06T07:13:23;102284.19;;;5.05;100.00
7407;BME280;3745;56.964;24.128;2023-04-06T07:15:49;102278.63;;;5.23;100.00
7407;BME280;3745;56.964;24.128;2023-04-06T07:18:16;102283.88;;;5.41;100.00
7407;BME280;3745;56.964;24.128;2023-04-06T07:20:45;102081.06;;;4.20;100.00
7407;BME280;3745;56.964;24.128;2023-04-06T07:23:28;102123.50;;;4.59;100.00
7407;BME280;3745;56.964;24.128;2023-04-06T07:25:53;102165.75;;;4.96;100.00
7407;BME280;3745;56.964;24.128;2023-04-06T07:28:20;102270.03;;;5.62;100.00
7407;BME280;3745;56.964;24.128;2023-04-06T07:30:45;102268.81;;;5.70;100.00
7407;BME280;3745;56.964;24.128;2023-04-06T07:33:11;102265.53;;;5.71;100.00
7407;BME280;3745;56.964;24.128;2023-04-06T07:35:37;102219.09;;;5.35;100.00
7407;BME280;3745;56.964;24.128;2023-04-06T07:38:03;102239.63;;;5.43;100.00
7407;BME280;3745;56.964;24.128;2023-04-06T07:40:29;102265.00;;;5.62;100.00
7407;BME280;3745;56.964;24.128;2023-04-06T07:42:57;102234.00;;;5.47;100.00
7407;BME280;3745;56.964;24.128;2023-04-06T07:45:22;102241.25;;;5.57;100.00
7407;BME280;3745;56.964;24.128;2023-04-06T07:47:48;102221.69;;;5.66;100.00
7407;BME280;3745;56.964;24.128;2023-04-06T07:50:15;102247.84;;;5.84;100.00
7407;BME280;3745;56.964;24.128;2023-04-06T07:52:41;102199.00;;;5.65;100.00
7407;BME280;3745;56.964;24.128;2023-04-06T07:55:07;102235.69;;;6.07;100.00
7407;BME280;3745;56.964;24.128;2023-04-06T07:57:33;102251.94;;;6.28;100.00
7407;BME280;3745;56.964;24.128;2023-04-06T07:59:58;102220.22;;;6.30;100.00
7407;BME280;3745;56.964;24.128;2023-04-06T08:02:24;102248.88;;;6.64;100.00
7407;BME280;3745;56.964;24.128;2023-04-06T08:04:50;102235.50;;;6.65;100.00
7407;BME280;3745;56.964;24.128;2023-04-06T08:07:16;102237.94;;;6.64;100.00
7407;BME280;3745;56.964;24.128;2023-04-06T08:09:41;102213.03;;;6.52;100.00
7407;BME280;3745;56.964;24.128;2023-04-06T08:12:07;102252.50;;;7.01;100.00
7407;BME280;3745;56.964;24.128;2023-04-06T08:14:33;102235.22;;;6.91;100.00
7407;BME280;3745;56.964;24.128;2023-04-06T08:16:59;102251.09;;;7.06;100.00
7407;BME280;3745;56.964;24.128;2023-04-06T08:19:25;102207.69;;;6.78;100.00
7407;BME280;3745;56.964;24.128;2023-04-06T08:21:50;102257.53;;;7.01;100.00
7407;BME280;3745;56.964;24.128;2023-04-06T08:24:16;102186.84;;;6.48;100.00
7407;BME280;3745;56.964;24.128;2023-04-06T08:26:42;102261.44;;;6.80;100.00
7407;BME280;3745;56.964;24.128;2023-04-06T08:29:07;102215.06;;;6.59;100.00
7407;BME280;3745;56.964;24.128;2023-04-06T08:31:34;102259.28;;;6.70;100.00
7407;BME280;3745;56.964;24.128;2023-04-06T08:33:59;102272.47;;;6.66;100.00
7407;BME280;3745;56.964;24.128;2023-04-06T08:36:25;102222.56;;;6.43;100.00
7407;BME280;3745;56.964;24.128;2023-04-06T08:38:51;102264.78;;;6.79;100.00
7407;BME280;3745;56.964;24.128;2023-04-06T08:41:18;102273.41;;;6.84;100.00
7407;BME280;3745;56.964;24.128;2023-04-06T08:43:47;102270.13;;;6.85;100.00
7407;BME280;3745;56.964;24.128;2023-04-06T08:46:14;102203.19;;;6.57;100.00
7407;BME280;3745;56.964;24.128;2023-04-06T08:48:42;102271.94;;;7.04;100.00
7407;BME280;3745;56.964;24.128;2023-04-06T08:51:10;102271.69;;;7.16;100.00
7407;BME280;3745;56.964;24.128;2023-04-06T08:53:37;102265.06;;;7.18;100.00
7407;BME280;3745;56.964;24.128;2023-04-06T08:56:03;102280.03;;;7.15;100.00
7407;BME280;3745;56.964;24.128;2023-04-06T08:58:34;102266.81;;;7.02;100.00
7407;BME280;3745;56.964;24.128;2023-04-06T09:01:06;102208.81;;;6.67;100.00
7407;BME280;3745;56.964;24.128;2023-04-06T09:03:36;102275.94;;;7.00;100.00
7407;BME280;3745;56.964;24.128;2023-04-06T09:06:03;102286.56;;;6.95;100.00
7407;BME280;3745;56.964;24.128;2023-04-06T09:08:29;102292.75;;;7.01;100.00
7407;BME280;3745;56.964;24.128;2023-04-06T09:10:55;102258.63;;;6.90;100.00
7407;BME280;3745;56.964;24.128;2023-04-06T09:13:21;102277.50;;;6.98;100.00
7407;BME280;3745;56.964;24.128;2023-04-06T09:16:07;102271.69;;;7.16;100.00
7407;BME280;3745;56.964;24.128;2023-04-06T09:18:33;102279.56;;;7.05;100.00
7407;BME280;3745;56.964;24.128;2023-04-06T09:21:03;102114.09;;;6.35;100.00
7407;BME280;3745;56.964;24.128;2023-04-06T09:23:29;102208.22;;;7.05;100.00
7407;BME280;3745;56.964;24.128;2023-04-06T09:26:15;102212.72;;;7.11;100.00
7407;BME280;3745;56.964;24.128;2023-04-06T09:28:51;102239.75;;;7.15;100.00
7407;BME280;3745;56.964;24.128;2023-04-06T09:31:22;102221.78;;;7.25;100.00
7407;BME280;3745;56.964;24.128;2023-04-06T09:33:49;102274.28;;;7.67;100.00
7407;BME280;3745;56.964;24.128;2023-04-06T09:36:15;102254.81;;;7.47;100.00
7407;BME280;3745;56.964;24.128;2023-04-06T09:39:02;102275.72;;;7.62;100.00
7407;BME280;3745;56.964;24.128;2023-04-06T09:41:35;102211.47;;;7.36;100.00
7407;BME280;3745;56.964;24.128;2023-04-06T09:44:06;102222.09;;;7.31;100.00
7407;BME280;3745;56.964;24.128;2023-04-06T09:46:42;102253.81;;;7.61;100.00
7407;BME280;3745;56.964;24.128;2023-04-06T09:49:09;102267.97;;;7.75;100.00
7407;BME280;3745;56.964;24.128;2023-04-06T09:52:08;102103.91;;;6.82;100.00
7407;BME280;3745;56.964;24.128;2023-04-06T09:54:36;102263.06;;;7.78;100.00
7407;BME280;3745;56.964;24.128;2023-04-06T09:57:36;102266.97;;;7.89;100.00
7407;BME280;3745;56.964;24.128;2023-04-06T10:00:07;102241.91;;;7.92;100.00
7407;BME280;3745;56.964;24.128;2023-04-06T10:05:33;102258.91;;;7.96;100.00
7407;BME280;3745;56.964;24.128;2023-04-06T10:08:06;102260.59;;;7.97;100.00
7407;BME280;3745;56.964;24.128;2023-04-06T10:10:33;102266.63;;;7.99;100.00
7407;BME280;3745;56.964;24.128;2023-04-06T10:12:58;102268.03;;;7.94;100.00
7407;BME280;3745;56.964;24.128;2023-04-06T10:15:27;102161.97;;;7.37;100.00
7407;BME280;3745;56.964;24.128;2023-04-06T10:17:52;102263.94;;;7.96;100.00
7407;BME280;3745;56.964;24.128;2023-04-06T10:20:36;102232.72;;;7.59;100.00
7407;BME280;3745;56.964;24.128;2023-04-06T10:23:08;102260.59;;;7.62;100.00
7407;BME280;3745;56.964;24.128;2023-04-06T10:25:35;102205.84;;;7.42;100.00
7407;BME280;3745;56.964;24.128;2023-04-06T10:30:59;102202.84;;;7.67;100.00
7407;BME280;3745;56.964;24.128;2023-04-06T10:33:25;102085.94;;;6.92;100.00
7407;BME280;3745;56.964;24.128;2023-04-06T10:35:51;102256.25;;;7.93;100.00
7407;BME280;3745;56.964;24.128;2023-04-06T10:38:17;102262.63;;;8.04;100.00
7407;BME280;3745;56.964;24.128;2023-04-06T10:40:47;102268.09;;;8.13;100.00
7407;BME280;3745;56.964;24.128;2023-04-06T10:43:23;102271.06;;;8.23;100.00
7407;BME280;3745;56.964;24.128;2023-04-06T10:46:04;102220.28;;;7.97;100.00
7407;BME280;3745;56.964;24.128;2023-04-06T10:48:38;102259.91;;;8.17;100.00
7407;BME280;3745;56.964;24.128;2023-04-06T10:51:11;102230.50;;;8.00;100.00
7407;BME280;3745;56.964;24.128;2023-04-06T10:53:37;102253.34;;;8.21;100.00
7407;BME280;3745;56.964;24.128;2023-04-06T10:56:04;102260.66;;;8.33;100.00
7407;BME280;3745;56.964;24.128;2023-04-06T10:58:35;102229.94;;;8.24;100.00
7407;BME280;3745;56.964;24.128;2023-04-06T11:01:01;102136.19;;;7.60;100.00
7407;BME280;3745;56.964;24.128;2023-04-06T11:03:31;102247.94;;;8.31;100.00
7407;BME280;3745;56.964;24.128;2023-04-06T11:05:58;102103.00;;;7.51;100.00
7407;BME280;3745;56.964;24.128;2023-04-06T11:08:29;102184.84;;;7.94;100.00
7407;BME280;3745;56.964;24.128;2023-04-06T11:11:12;102247.53;;;8.40;100.00
7407;BME280;3745;56.964;24.128;2023-04-06T11:13:49;102254.00;;;8.35;100.00
7407;BME280;3745;56.964;24.128;2023-04-06T11:16:24;102116.47;;;7.69;100.00
7407;BME280;3745;56.964;24.128;2023-04-06T11:24:19;102241.75;;;8.42;100.00
7407;BME280;3745;56.964;24.128;2023-04-06T11:29:26;102253.91;;;8.51;100.00
7407;BME280;3745;56.964;24.128;2023-04-06T11:32:05;102070.84;;;7.63;100.00
7407;BME280;3745;56.964;24.128;2023-04-06T11:34:35;102004.31;;;7.40;100.00
7407;BME280;3745;56.964;24.128;2023-04-06T11:37:03;102103.78;;;7.85;100.00
7407;BME280;3745;56.964;24.128;2023-04-06T11:39:54;102239.56;;;8.69;100.00
7407;BME280;3745;56.964;24.128;2023-04-06T11:42:25;102125.44;;;8.18;100.00
7407;BME280;3745;56.964;24.128;2023-04-06T11:44:55;102225.50;;;8.93;100.00
7407;BME280;3745;56.964;24.128;2023-04-06T11:47:28;102106.09;;;8.17;100.00
7407;BME280;3745;56.964;24.128;2023-04-06T11:50:06;102253.41;;;8.96;100.00
7407;BME280;3745;56.964;24.128;2023-04-06T11:52:34;102167.19;;;8.49;100.00
7407;BME280;3745;56.964;24.128;2023-04-06T11:55:17;102248.59;;;9.02;100.00
7407;BME280;3745;56.964;24.128;2023-04-06T11:57:43;102081.13;;;8.04;100.00
7407;BME280;3745;56.964;24.128;2023-04-06T12:00:12;102113.78;;;8.21;100.00
7407;BME280;3745;56.964;24.128;2023-04-06T12:02:38;102250.47;;;9.06;100.00
7407;BME280;3745;56.964;24.128;2023-04-06T12:05:05;102254.19;;;9.14;100.00
7407;BME280;3745;56.964;24.128;2023-04-06T12:07:32;102250.88;;;9.15;100.00
7407;BME280;3745;56.964;24.128;2023-04-06T12:09:59;102246.06;;;9.21;100.00
7407;BME280;3745;56.964;24.128;2023-04-06T12:12:25;102250.22;;;9.00;100.00
7407;BME280;3745;56.964;24.128;2023-04-06T12:14:51;102246.09;;;8.83;100.00
7407;BME280;3745;56.964;24.128;2023-04-06T12:17:18;102249.09;;;8.94;100.00
7407;BME280;3745;56.964;24.128;2023-04-06T12:19:44;102248.47;;;8.99;100.00
7407;BME280;3745;56.964;24.128;2023-04-06T12:22:09;102218.75;;;8.73;100.00
7407;BME280;3745;56.964;24.128;2023-04-06T12:24:35;102198.81;;;8.79;100.00
7407;BME280;3745;56.964;24.128;2023-04-06T12:27:04;102112.47;;;8.29;100.00
7407;BME280;3745;56.964;24.128;2023-04-06T12:29:29;102185.38;;;8.80;100.00
7407;BME280;3745;56.964;24.128;2023-04-06T12:31:55;102220.69;;;9.18;100.00
7407;BME280;3745;56.964;24.128;2023-04-06T12:34:23;102047.75;;;8.10;100.00
7407;BME280;3745;56.964;24.128;2023-04-06T12:36:49;102242.50;;;9.16;100.00
7407;BME280;3745;56.964;24.128;2023-04-06T12:39:18;102177.53;;;8.93;100.00
7407;BME280;3745;56.964;24.128;2023-04-06T12:41:45;102190.53;;;8.83;100.00
7407;BME280;3745;56.964;24.128;2023-04-06T12:44:11;102092.44;;;8.32;100.00
7407;BME280;3745;56.964;24.128;2023-04-06T12:46:36;102112.41;;;8.46;100.00
7407;BME280;3745;56.964;24.128;2023-04-06T12:49:03;102233.97;;;9.14;100.00
7407;BME280;3745;56.964;24.128;2023-04-06T12:51:28;102041.19;;;8.13;100.00
7407;BME280;3745;56.964;24.128;2023-04-06T12:53:54;101979.25;;;7.80;100.00
7407;BME280;3745;56.964;24.128;2023-04-06T12:56:20;102105.44;;;8.60;100.00
7407;BME280;3745;56.964;24.128;2023-04-06T12:58:51;102205.78;;;9.24;100.00
7407;BME280;3745;56.964;24.128;2023-04-06T13:01:17;102171.41;;;9.07;100.00
7407;BME280;3745;56.964;24.128;2023-04-06T13:03:43;102190.50;;;9.21;100.00
7407;BME280;3745;56.964;24.128;2023-04-06T13:06:09;102216.50;;;9.40;100.00
7407;BME280;3745;56.964;24.128;2023-04-06T13:08:36;102084.16;;;8.74;100.00
7407;BME280;3745;56.964;24.128;2023-04-06T13:11:05;102202.47;;;9.25;100.00
7407;BME280;3745;56.964;24.128;2023-04-06T13:13:33;102199.56;;;9.16;100.00
7407;BME280;3745;56.964;24.128;2023-04-06T13:16:02;102126.13;;;8.72;100.00